Time;durP1;ratioP1;P1;durP2;ratioP2;P2;SDS_P1;SDS_P2;PMS_P1;PMS_P2;Temp;Humidity;BMP_temperature;BMP_pressure;BME280_temperature;BME280_humidity;BME280_pressure;Samples;Min_cycle;Max_cycle;Signal;HPM_P1;HPM_P2
2024/01/04 00:01:15;;;;;;;7.30;0.63;;;8.30;99.90;;;;;;4971352;28;21146;-67
2024/01/04 00:03:45;;;;;;;7.07;0.90;;;8.20;99.90;;;;;;4967575;28;20502;-67
2024/01/04 00:06:12;;;;;;;9.67;0.83;;;8.20;99.90;;;;;;4970782;28;20609;-66
2024/01/04 00:08:40;;;;;;;7.03;0.60;;;8.10;99.90;;;;;;4970463;28;20483;-66
2024/01/04 00:11:08;;;;;;;7.83;0.90;;;8.00;99.90;;;;;;4958643;28;20482;-66
2024/01/04 00:13:36;;;;;;;6.40;0.90;;;7.90;99.90;;;;;;4971012;28;20447;-67
2024/01/04 00:16:08;;;;;;;6.40;0.57;;;7.80;99.90;;;;;;4966047;28;20477;-67
2024/01/04 00:18:36;;;;;;;6.80;0.73;;;7.70;99.90;;;;;;4967023;28;20432;-67
2024/01/04 00:21:06;;;;;;;7.00;0.73;;;7.70;99.90;;;;;;4966461;28;20463;-67
2024/01/04 00:23:35;;;;;;;7.80;0.80;;;7.60;99.90;;;;;;4972572;28;20539;-67
2024/01/04 00:26:04;;;;;;;7.90;0.70;;;7.60;99.90;;;;;;4969301;28;20492;-67
2024/01/04 00:28:32;;;;;;;8.20;0.80;;;7.50;99.90;;;;;;4969209;28;20842;-67
2024/01/04 00:31:00;;;;;;;6.30;0.60;;;7.50;99.90;;;;;;4973405;28;21216;-67
2024/01/04 00:33:27;;;;;;;8.10;0.50;;;7.40;99.90;;;;;;4975618;28;20470;-67
2024/01/04 00:35:56;;;;;;;9.13;0.90;;;7.40;99.90;;;;;;4964800;28;20452;-67
2024/01/04 00:38:25;;;;;;;6.40;0.67;;;7.40;99.90;;;;;;4965386;28;20448;-67
2024/01/04 00:40:53;;;;;;;6.67;0.67;;;7.30;99.90;;;;;;4961691;28;20517;-67
2024/01/04 00:43:21;;;;;;;6.97;0.80;;;7.30;99.90;;;;;;4973596;28;20916;-67
2024/01/04 00:45:49;;;;;;;6.93;0.70;;;7.20;99.90;;;;;;4977385;28;20466;-67
2024/01/04 00:48:17;;;;;;;10.03;0.90;;;7.30;99.90;;;;;;4979091;28;20593;-68
2024/01/04 00:50:45;;;;;;;8.87;0.90;;;7.40;99.90;;;;;;4979780;28;20526;-67
2024/01/04 00:53:13;;;;;;;6.57;0.80;;;7.40;99.90;;;;;;4968973;28;20533;-67
2024/01/04 00:55:43;;;;;;;6.63;0.53;;;7.40;99.90;;;;;;4971562;28;20965;-67
2024/01/04 00:58:11;;;;;;;6.73;0.60;;;7.40;99.90;;;;;;4964352;28;20534;-67
2024/01/04 01:00:40;;;;;;;8.70;0.73;;;7.40;99.90;;;;;;4969367;28;20574;-67
2024/01/04 01:03:08;;;;;;;8.33;1.27;;;7.40;99.90;;;;;;4960112;28;20467;-67
2024/01/04 01:05:36;;;;;;;8.30;1.50;;;7.40;99.90;;;;;;4952369;28;20502;-66
2024/01/04 01:08:05;;;;;;;7.17;0.67;;;7.40;99.90;;;;;;4975288;28;21037;-67
2024/01/04 01:10:34;;;;;;;7.73;0.63;;;7.40;99.90;;;;;;4970011;28;20462;-67
2024/01/04 01:13:03;;;;;;;7.93;0.70;;;7.40;99.90;;;;;;4969304;28;20483;-66
2024/01/04 01:15:31;;;;;;;7.80;0.60;;;7.40;99.90;;;;;;4964700;28;21156;-66
2024/01/04 01:18:00;;;;;;;7.40;0.90;;;7.40;99.90;;;;;;4965145;28;20947;-67
2024/01/04 01:20:29;;;;;;;7.17;0.80;;;7.30;99.90;;;;;;4965368;28;20447;-67
2024/01/04 01:22:58;;;;;;;6.87;0.77;;;7.30;99.90;;;;;;4968225;28;20554;-67
2024/01/04 01:25:26;;;;;;;7.80;0.60;;;7.20;99.90;;;;;;4970497;28;20508;-68
2024/01/04 01:27:54;;;;;;;13.70;3.17;;;7.20;99.90;;;;;;4967600;28;20538;-67
2024/01/04 01:30:24;;;;;;;6.80;0.50;;;7.10;99.90;;;;;;4964912;28;20536;-66
2024/01/04 01:32:52;;;;;;;9.10;0.70;;;7.10;99.90;;;;;;4969681;28;20507;-66
2024/01/04 01:35:20;;;;;;;7.50;0.50;;;7.10;99.90;;;;;;4967828;28;20822;-67
2024/01/04 01:37:48;;;;;;;6.20;0.50;;;7.00;99.90;;;;;;4961120;28;20745;-68
2024/01/04 01:40:16;;;;;;;6.77;0.70;;;7.00;99.90;;;;;;4983824;28;20462;-68
2024/01/04 01:42:47;;;;;;;6.63;0.50;;;7.00;99.90;;;;;;4967821;28;20561;-66
2024/01/04 01:45:15;;;;;;;6.97;0.50;;;6.90;99.90;;;;;;4968833;28;20447;-68
2024/01/04 01:47:47;;;;;;;8.43;0.70;;;6.90;99.90;;;;;;4967547;28;20450;-68
2024/01/04 01:50:18;;;;;;;7.20;0.70;;;6.90;99.90;;;;;;4967833;28;20438;-66
2024/01/04 01:52:47;;;;;;;6.93;0.50;;;6.90;99.90;;;;;;4968510;28;21036;-66
2024/01/04 01:55:16;;;;;;;7.23;0.80;;;7.00;99.90;;;;;;4969087;28;20477;-67
2024/01/04 01:57:45;;;;;;;10.00;1.07;;;7.10;99.90;;;;;;4968562;28;20447;-66
2024/01/04 02:00:15;;;;;;;11.13;0.80;;;7.10;99.90;;;;;;4965078;28;20453;-66
2024/01/04 02:02:48;;;;;;;6.73;0.50;;;7.10;99.90;;;;;;4986899;28;20523;-68
2024/01/04 02:05:16;;;;;;;8.80;0.97;;;7.10;99.90;;;;;;4976480;28;20465;-67
2024/01/04 02:07:45;;;;;;;6.53;0.53;;;7.10;99.90;;;;;;4971510;28;20434;-68
2024/01/04 02:10:13;;;;;;;8.20;0.53;;;7.10;99.90;;;;;;4982441;28;20558;-67
2024/01/04 02:12:42;;;;;;;7.40;0.90;;;7.10;99.90;;;;;;4936806;28;1060286;-66
2024/01/04 02:15:10;;;;;;;6.00;0.40;;;7.10;99.90;;;;;;4969736;28;20208;-68
2024/01/04 02:17:39;;;;;;;6.80;0.40;;;7.00;99.90;;;;;;4969571;28;20453;-68
2024/01/04 02:20:10;;;;;;;6.63;0.50;;;7.00;99.90;;;;;;4964550;28;20963;-67
2024/01/04 02:22:42;;;;;;;9.20;0.50;;;7.00;99.90;;;;;;4969886;28;20480;-68
2024/01/04 02:25:10;;;;;;;6.30;0.40;;;7.00;99.90;;;;;;4969830;28;20533;-68
2024/01/04 02:27:38;;;;;;;6.60;0.50;;;7.10;99.90;;;;;;4969762;28;20837;-67
2024/01/04 02:30:07;;;;;;;6.43;0.50;;;7.10;99.90;;;;;;4969530;28;21996;-68
2024/01/04 02:32:35;;;;;;;5.80;0.40;;;7.20;99.90;;;;;;4969419;28;20558;-68
2024/01/04 02:35:04;;;;;;;5.87;0.40;;;7.30;99.90;;;;;;4970133;28;20457;-68
2024/01/04 02:37:32;;;;;;;7.40;0.60;;;7.30;99.90;;;;;;4967777;28;20547;-67
2024/01/04 02:40:02;;;;;;;5.73;0.30;;;7.40;99.90;;;;;;4969135;28;20457;-68
2024/01/04 02:42:32;;;;;;;5.97;0.40;;;7.50;99.90;;;;;;4969528;28;20475;-68
2024/01/04 02:44:59;;;;;;;6.20;0.57;;;7.50;99.90;;;;;;4969703;28;20502;-69
2024/01/04 02:47:28;;;;;;;6.00;0.30;;;7.50;99.90;;;;;;4968997;28;20451;-68
2024/01/04 02:49:56;;;;;;;5.73;0.30;;;7.50;99.90;;;;;;4968827;28;20507;-68
2024/01/04 02:52:23;;;;;;;5.70;0.30;;;7.50;99.90;;;;;;4968507;28;20475;-68
2024/01/04 02:54:51;;;;;;;6.10;0.40;;;7.50;99.90;;;;;;4968923;28;20924;-68
2024/01/04 02:57:21;;;;;;;6.47;0.30;;;7.50;99.90;;;;;;4960177;28;20451;-68
2024/01/04 02:59:49;;;;;;;6.00;0.30;;;7.50;99.90;;;;;;4954220;28;20449;-67
2024/01/04 03:02:17;;;;;;;5.90;0.40;;;7.50;99.90;;;;;;4977065;28;20468;-68
2024/01/04 03:04:45;;;;;;;5.77;0.30;;;7.40;99.90;;;;;;4987977;28;20442;-68
2024/01/04 03:07:13;;;;;;;5.70;0.40;;;7.40;99.90;;;;;;4976634;28;20459;-68
2024/01/04 03:09:41;;;;;;;5.80;0.40;;;7.40;99.90;;;;;;4967872;28;20483;-68
2024/01/04 03:12:09;;;;;;;5.73;0.40;;;7.40;99.90;;;;;;4968464;28;20558;-68
2024/01/04 03:14:38;;;;;;;6.10;0.57;;;7.40;99.90;;;;;;4968992;28;20459;-67
2024/01/04 03:17:07;;;;;;;5.73;0.30;;;7.30;99.90;;;;;;4969065;28;20458;-67
2024/01/04 03:19:35;;;;;;;5.83;0.30;;;7.40;99.90;;;;;;4969633;28;20544;-67
2024/01/04 03:22:03;;;;;;;5.70;0.30;;;7.40;99.90;;;;;;4967148;28;20481;-67
2024/01/04 03:24:32;;;;;;;5.87;0.40;;;7.40;99.90;;;;;;4969297;28;20460;-67
2024/01/04 03:26:59;;;;;;;5.80;0.50;;;7.40;99.90;;;;;;4969246;28;20451;-66
2024/01/04 03:29:27;;;;;;;5.90;0.30;;;7.40;99.90;;;;;;4969421;28;20870;-68
2024/01/04 03:31:57;;;;;;;5.70;0.40;;;7.40;99.90;;;;;;4968870;28;20498;-68
2024/01/04 03:34:24;;;;;;;5.77;0.30;;;7.40;99.90;;;;;;4969004;28;20451;-68
2024/01/04 03:36:53;;;;;;;7.03;0.80;;;7.40;99.90;;;;;;4968885;28;21314;-67
2024/01/04 03:39:20;;;;;;;6.20;0.53;;;7.50;99.90;;;;;;4969363;28;20557;-68
2024/01/04 03:41:48;;;;;;;6.57;0.50;;;7.50;99.90;;;;;;4968995;28;20475;-67
2024/01/04 03:44:16;;;;;;;5.73;0.30;;;7.50;99.90;;;;;;4968576;28;20455;-68
2024/01/04 03:46:44;;;;;;;7.37;0.40;;;7.50;99.90;;;;;;4968943;28;20479;-68
2024/01/04 03:49:13;;;;;;;5.80;0.47;;;7.60;99.90;;;;;;4968763;28;20942;-68
2024/01/04 03:51:41;;;;;;;6.30;0.50;;;7.60;99.90;;;;;;4961661;28;20469;-67
2024/01/04 03:54:09;;;;;;;5.80;0.40;;;7.60;99.90;;;;;;4968391;28;20463;-67
2024/01/04 03:56:38;;;;;;;6.10;0.40;;;7.70;99.90;;;;;;4968695;28;20557;-68
2024/01/04 03:59:06;;;;;;;9.30;0.50;;;7.70;99.90;;;;;;4968758;28;20452;-68
2024/01/04 04:01:33;;;;;;;5.90;0.40;;;7.80;99.90;;;;;;4968434;28;20475;-68
2024/01/04 04:04:01;;;;;;;6.20;0.40;;;7.80;99.90;;;;;;4968449;28;20534;-68
2024/01/04 04:06:32;;;;;;;10.00;0.80;;;7.80;99.90;;;;;;4968671;28;20447;-66
2024/01/04 04:09:00;;;;;;;6.90;0.53;;;7.90;99.90;;;;;;4963900;28;20527;-67
2024/01/04 04:11:28;;;;;;;6.77;0.70;;;7.90;99.90;;;;;;4968567;28;20499;-67
2024/01/04 04:13:56;;;;;;;6.30;0.50;;;8.00;99.90;;;;;;4968703;28;20451;-67
2024/01/04 04:16:24;;;;;;;7.23;0.70;;;7.90;99.90;;;;;;4968196;28;20464;-66
2024/01/04 04:18:52;;;;;;;6.90;0.60;;;8.00;99.90;;;;;;4968756;28;20490;-67
2024/01/04 04:21:20;;;;;;;7.07;0.77;;;8.10;99.90;;;;;;4968189;28;21000;-66
2024/01/04 04:23:50;;;;;;;6.30;0.70;;;8.20;99.90;;;;;;4967197;28;20558;-66
2024/01/04 04:26:18;;;;;;;6.73;1.00;;;8.30;99.90;;;;;;4968145;28;20482;-67
2024/01/04 04:28:46;;;;;;;7.50;0.60;;;8.40;99.90;;;;;;4968400;28;20461;-66
2024/01/04 04:31:15;;;;;;;8.30;0.70;;;8.50;99.90;;;;;;4966508;28;20471;-67
2024/01/04 04:33:45;;;;;;;6.50;0.50;;;8.60;99.90;;;;;;4987894;28;20443;-67
2024/01/04 04:36:13;;;;;;;6.00;0.60;;;8.70;99.90;;;;;;4968366;28;21212;-66
2024/01/04 04:38:42;;;;;;;6.70;0.70;;;8.70;99.90;;;;;;4968159;28;20459;-67
2024/01/04 04:41:11;;;;;;;9.40;0.60;;;8.70;99.90;;;;;;4966419;28;21039;-66
2024/01/04 04:43:39;;;;;;;7.50;0.70;;;8.70;99.90;;;;;;4967959;28;20444;-66
2024/01/04 04:46:09;;;;;;;7.03;0.50;;;8.70;99.90;;;;;;4968178;28;20448;-66
2024/01/04 04:48:37;;;;;;;6.30;0.50;;;8.50;99.90;;;;;;4968336;28;20463;-66
2024/01/04 04:51:06;;;;;;;7.33;0.67;;;8.40;99.90;;;;;;4960690;28;20549;-66
2024/01/04 04:53:34;;;;;;;8.53;0.70;;;8.30;99.90;;;;;;4962563;28;20446;-67
2024/01/04 04:56:02;;;;;;;10.47;1.20;;;8.20;99.90;;;;;;4967652;28;20530;-67
2024/01/04 04:58:31;;;;;;;7.83;0.80;;;8.20;99.90;;;;;;4968193;28;20532;-66
2024/01/04 05:00:59;;;;;;;6.40;0.57;;;8.30;99.90;;;;;;4967638;28;20452;-67
2024/01/04 05:03:28;;;;;;;6.27;0.70;;;8.20;99.90;;;;;;4967979;28;20472;-67
2024/01/04 05:05:56;;;;;;;8.47;0.67;;;8.10;99.90;;;;;;4966891;28;20454;-67
2024/01/04 05:08:24;;;;;;;10.40;1.03;;;8.00;99.90;;;;;;4967950;28;21023;-66
2024/01/04 05:10:52;;;;;;;8.00;0.70;;;8.00;99.90;;;;;;4967755;28;20485;-66
2024/01/04 05:13:20;;;;;;;7.80;0.80;;;7.90;99.90;;;;;;4967852;28;20477;-67
2024/01/04 05:15:49;;;;;;;10.73;2.87;;;7.80;99.90;;;;;;4967821;28;20459;-67
2024/01/04 05:18:17;;;;;;;10.13;0.90;;;7.80;99.90;;;;;;4967890;28;20451;-66
2024/01/04 05:20:45;;;;;;;7.17;0.60;;;7.80;99.90;;;;;;4967605;28;20450;-67
2024/01/04 05:23:13;;;;;;;6.80;0.70;;;7.80;99.90;;;;;;4966594;28;20575;-66
2024/01/04 05:25:41;;;;;;;7.97;0.90;;;7.90;99.90;;;;;;4967812;28;20454;-66
2024/01/04 05:28:09;;;;;;;7.67;0.70;;;7.80;99.90;;;;;;4967975;28;20460;-66
2024/01/04 05:30:37;;;;;;;8.00;0.50;;;7.80;99.90;;;;;;4967606;28;21092;-66
2024/01/04 05:33:07;;;;;;;6.83;0.57;;;7.90;99.90;;;;;;4967805;28;20472;-67
2024/01/04 05:35:36;;;;;;;7.90;0.57;;;7.90;99.90;;;;;;4968169;28;20831;-67
2024/01/04 05:38:04;;;;;;;6.30;0.60;;;7.90;99.90;;;;;;4966301;28;20452;-67
2024/01/04 05:40:32;;;;;;;8.93;0.80;;;7.90;99.90;;;;;;4967860;28;20932;-66
2024/01/04 05:43:00;;;;;;;6.90;0.57;;;7.80;99.90;;;;;;4967604;28;20472;-66
2024/01/04 05:45:28;;;;;;;7.70;0.70;;;7.80;99.90;;;;;;4967938;28;21099;-67
2024/01/04 05:47:55;;;;;;;6.30;0.60;;;7.80;99.90;;;;;;4967553;28;20462;-66
2024/01/04 05:50:25;;;;;;;6.67;0.80;;;7.80;99.90;;;;;;4967272;28;20582;-66
2024/01/04 05:52:53;;;;;;;6.20;0.50;;;7.90;99.90;;;;;;4969559;28;20471;-67
2024/01/04 05:55:21;;;;;;;6.10;0.50;;;7.90;99.90;;;;;;4967918;28;20510;-67
2024/01/04 05:57:49;;;;;;;7.40;0.80;;;7.90;99.90;;;;;;4967722;28;20538;-67
2024/01/04 06:00:17;;;;;;;8.50;0.87;;;7.90;99.90;;;;;;4967420;28;20455;-66
2024/01/04 06:02:46;;;;;;;7.47;0.80;;;7.90;99.90;;;;;;4967288;28;20471;-67
2024/01/04 06:05:15;;;;;;;7.67;0.60;;;8.00;99.90;;;;;;4967136;28;20831;-67
2024/01/04 06:07:44;;;;;;;7.30;0.80;;;8.00;99.90;;;;;;4968393;28;20463;-67
2024/01/04 06:10:12;;;;;;;9.97;0.90;;;8.00;99.90;;;;;;4974001;28;20461;-65
2024/01/04 06:12:41;;;;;;;7.97;0.57;;;8.00;99.90;;;;;;4970873;28;21311;-67
2024/01/04 06:15:09;;;;;;;7.03;0.90;;;7.90;99.90;;;;;;4970745;28;20458;-67
2024/01/04 06:17:37;;;;;;;9.33;0.97;;;7.90;99.90;;;;;;4971032;28;20455;-66
2024/01/04 06:20:06;;;;;;;7.90;0.80;;;7.90;99.90;;;;;;4971315;28;20553;-67
2024/01/04 06:22:34;;;;;;;8.53;0.70;;;7.90;99.90;;;;;;4961407;28;20459;-66
2024/01/04 06:25:03;;;;;;;7.63;0.70;;;7.90;99.90;;;;;;4970914;28;20550;-67
2024/01/04 06:27:32;;;;;;;6.53;0.73;;;7.90;99.90;;;;;;4967688;28;20448;-67
2024/01/04 06:30:00;;;;;;;6.93;0.60;;;8.00;99.90;;;;;;4970521;28;20449;-67
2024/01/04 06:32:28;;;;;;;9.17;0.70;;;8.00;99.90;;;;;;4970782;28;20516;-66
2024/01/04 06:34:56;;;;;;;10.13;1.30;;;8.00;99.90;;;;;;4970511;28;20462;-66
2024/01/04 06:37:24;;;;;;;7.67;0.67;;;8.10;99.90;;;;;;4970655;28;20889;-67
2024/01/04 06:39:52;;;;;;;6.13;0.53;;;8.10;99.90;;;;;;4968925;28;20456;-67
2024/01/04 06:42:21;;;;;;;9.03;1.83;;;8.10;99.90;;;;;;4969454;28;20955;-67
2024/01/04 06:44:49;;;;;;;8.20;1.10;;;8.10;99.90;;;;;;4966896;28;20956;-66
2024/01/04 06:47:17;;;;;;;7.60;0.77;;;8.00;99.90;;;;;;4970716;28;20903;-67
2024/01/04 06:49:45;;;;;;;7.37;0.67;;;8.00;99.90;;;;;;4970336;28;20510;-66
2024/01/04 06:52:13;;;;;;;7.37;1.23;;;8.00;99.90;;;;;;4970186;28;20499;-66
2024/01/04 06:54:42;;;;;;;7.70;0.50;;;8.00;99.90;;;;;;4970015;28;20490;-66
2024/01/04 06:57:10;;;;;;;7.50;1.30;;;8.00;99.90;;;;;;4969893;28;20466;-66
2024/01/04 06:59:40;;;;;;;6.60;0.83;;;8.00;99.90;;;;;;4968318;28;21016;-66
2024/01/04 07:02:07;;;;;;;7.60;0.70;;;8.00;99.90;;;;;;4969948;28;20476;-66
2024/01/04 07:04:36;;;;;;;8.30;0.70;;;8.00;99.90;;;;;;4970420;28;20559;-66
2024/01/04 07:07:04;;;;;;;7.80;0.60;;;8.10;99.90;;;;;;4970162;28;20478;-66
2024/01/04 07:09:32;;;;;;;7.33;0.80;;;8.10;99.90;;;;;;4969680;28;20444;-66
2024/01/04 07:12:00;;;;;;;5.93;0.50;;;8.20;99.90;;;;;;4969498;28;20498;-67
2024/01/04 07:14:28;;;;;;;6.47;0.60;;;8.20;99.90;;;;;;4969931;28;20455;-67
2024/01/04 07:16:57;;;;;;;7.20;0.53;;;8.30;99.90;;;;;;4960680;28;20498;-67
2024/01/04 07:19:25;;;;;;;9.60;0.63;;;8.30;99.90;;;;;;4968832;28;20483;-66
2024/01/04 07:21:53;;;;;;;7.10;0.70;;;8.40;99.90;;;;;;4969384;28;20471;-67
2024/01/04 07:24:22;;;;;;;6.60;0.90;;;8.40;99.90;;;;;;4969782;28;20443;-67
2024/01/04 07:26:50;;;;;;;8.37;0.80;;;8.40;99.90;;;;;;4969443;28;20496;-67
2024/01/04 07:29:18;;;;;;;7.83;0.73;;;8.40;99.90;;;;;;4969795;28;20454;-67
2024/01/04 07:31:46;;;;;;;7.90;1.00;;;8.50;99.90;;;;;;4966651;28;20563;-67
2024/01/04 07:34:15;;;;;;;6.20;0.63;;;8.50;99.90;;;;;;4968561;28;20502;-67
2024/01/04 07:36:43;;;;;;;6.53;0.70;;;8.50;99.90;;;;;;4969349;28;20474;-67
2024/01/04 07:39:11;;;;;;;9.13;1.00;;;8.60;99.90;;;;;;4969777;28;20905;-67
2024/01/04 07:41:40;;;;;;;6.67;0.70;;;8.50;99.90;;;;;;4976997;28;20475;-66
2024/01/04 07:44:09;;;;;;;7.07;0.63;;;8.50;99.90;;;;;;4969706;28;20455;-67
2024/01/04 07:46:37;;;;;;;7.93;0.60;;;8.60;99.90;;;;;;4969278;28;20459;-67
2024/01/04 07:49:06;;;;;;;6.80;0.93;;;8.60;99.90;;;;;;4963822;28;20435;-67
2024/01/04 07:51:37;;;;;;;7.23;0.70;;;8.50;99.90;;;;;;4968920;28;20494;-67
2024/01/04 07:54:05;;;;;;;9.70;0.67;;;8.40;99.90;;;;;;4969042;28;20445;-66
2024/01/04 07:56:33;;;;;;;7.43;0.70;;;8.40;99.90;;;;;;4961135;28;20490;-66
2024/01/04 07:59:01;;;;;;;6.73;0.60;;;8.30;99.90;;;;;;4969097;28;20471;-66
2024/01/04 08:01:28;;;;;;;8.30;0.70;;;8.30;99.90;;;;;;4968551;28;20507;-68
2024/01/04 08:03:59;;;;;;;6.07;0.50;;;8.30;99.90;;;;;;4967189;28;20459;-66
2024/01/04 08:06:27;;;;;;;8.73;0.73;;;8.20;99.90;;;;;;4968978;28;20453;-65
2024/01/04 08:08:56;;;;;;;6.57;0.73;;;8.20;99.90;;;;;;4968956;28;20452;-66
2024/01/04 08:11:24;;;;;;;8.30;0.60;;;8.20;99.90;;;;;;4960422;28;20467;-66
2024/01/04 08:13:53;;;;;;;7.60;0.90;;;8.20;99.90;;;;;;4967746;28;20454;-66
2024/01/04 08:16:21;;;;;;;7.53;0.80;;;8.10;99.90;;;;;;4968436;28;20530;-66
2024/01/04 08:18:49;;;;;;;6.80;0.80;;;8.10;99.90;;;;;;4968424;28;20486;-66
2024/01/04 08:21:18;;;;;;;6.30;0.63;;;8.20;99.90;;;;;;4966102;28;20452;-67
2024/01/04 08:23:51;;;;;;;7.27;0.60;;;8.20;99.90;;;;;;4968548;28;20960;-66
2024/01/04 08:26:20;;;;;;;7.63;0.60;;;8.20;99.90;;;;;;4968314;28;20471;-66
2024/01/04 08:28:49;;;;;;;6.10;0.70;;;8.30;99.90;;;;;;4962977;28;20841;-67
2024/01/04 08:31:17;;;;;;;8.67;1.13;;;8.30;99.90;;;;;;4967223;28;20553;-66
2024/01/04 08:33:45;;;;;;;7.20;0.60;;;8.40;99.90;;;;;;4967817;28;21087;-67
2024/01/04 08:36:13;;;;;;;7.30;0.80;;;8.40;99.90;;;;;;4968316;28;20455;-66
2024/01/04 08:38:41;;;;;;;8.63;1.17;;;8.40;99.90;;;;;;4966698;28;20452;-67
2024/01/04 08:41:11;;;;;;;8.77;1.00;;;8.50;99.90;;;;;;4967890;28;20459;-67
2024/01/04 08:43:41;;;;;;;6.93;1.10;;;8.50;99.90;;;;;;4968202;28;20444;-66
2024/01/04 08:46:09;;;;;;;6.20;0.80;;;8.60;99.90;;;;;;4968100;28;20519;-67
2024/01/04 08:48:37;;;;;;;6.93;0.90;;;8.70;99.90;;;;;;4968099;28;20483;-67
2024/01/04 08:51:05;;;;;;;9.03;1.30;;;8.80;99.90;;;;;;4967466;28;20830;-66
2024/01/04 08:53:33;;;;;;;7.87;1.03;;;8.80;99.90;;;;;;4961552;28;20586;-66
2024/01/04 08:56:08;;;;;;;7.13;0.63;;;8.80;99.90;;;;;;4968254;28;20844;-66
2024/01/04 08:58:36;;;;;;;9.83;1.10;;;8.90;99.90;;;;;;4968359;28;20455;-67
2024/01/04 09:01:05;;;;;;;7.30;0.93;;;9.10;99.90;;;;;;4967662;28;21014;-66
2024/01/04 09:03:33;;;;;;;11.33;1.57;;;9.20;99.90;;;;;;4968006;28;20590;-67
2024/01/04 09:06:02;;;;;;;8.20;0.87;;;9.20;99.90;;;;;;4967853;28;20451;-67
2024/01/04 09:08:31;;;;;;;7.43;1.00;;;9.20;99.90;;;;;;4965399;28;20505;-67
2024/01/04 09:11:00;;;;;;;11.30;0.97;;;9.20;99.90;;;;;;4957841;28;20453;-67
2024/01/04 09:13:29;;;;;;;7.30;1.00;;;9.20;99.90;;;;;;4968375;28;21404;-67
2024/01/04 09:15:58;;;;;;;7.60;1.00;;;9.00;99.90;;;;;;4968290;28;20455;-68
2024/01/04 09:18:27;;;;;;;7.30;0.83;;;9.00;99.90;;;;;;4967821;28;20474;-67
2024/01/04 09:20:55;;;;;;;6.90;0.80;;;8.90;99.90;;;;;;4967617;28;20444;-68
2024/01/04 09:23:23;;;;;;;8.00;0.90;;;8.90;99.90;;;;;;4968041;28;20487;-68
2024/01/04 09:25:51;;;;;;;9.43;0.90;;;8.80;99.90;;;;;;4966256;28;20542;-69
2024/01/04 09:28:22;;;;;;;7.90;0.70;;;8.90;99.90;;;;;;4967274;28;20455;-68
2024/01/04 09:30:50;;;;;;;7.90;1.00;;;8.90;99.90;;;;;;4969933;28;20443;-69
2024/01/04 09:33:19;;;;;;;8.37;1.03;;;8.90;99.90;;;;;;4978701;28;20504;-69
2024/01/04 09:35:49;;;;;;;14.23;1.33;;;8.90;99.90;;;;;;4973032;28;20483;-68
2024/01/04 09:38:18;;;;;;;22.37;2.63;;;9.00;99.90;;;;;;4967004;28;20439;-69
2024/01/04 09:40:47;;;;;;;8.23;1.40;;;9.10;99.90;;;;;;4981498;28;20950;-68
2024/01/04 09:43:17;;;;;;;8.03;1.27;;;9.20;99.90;;;;;;4979328;28;21035;-70
2024/01/04 09:45:45;;;;;;;10.90;1.33;;;9.40;99.90;;;;;;4969743;28;20445;-69
2024/01/04 09:48:17;;;;;;;7.20;1.27;;;9.50;99.90;;;;;;4969269;28;20543;-70
2024/01/04 09:50:57;;;;;;;9.77;1.97;;;9.40;99.90;;;;;;4962999;28;20570;-69
2024/01/04 09:53:26;;;;;;;6.63;0.83;;;9.40;99.90;;;;;;4961388;28;20479;-68
2024/01/04 09:55:55;;;;;;;10.10;1.00;;;9.40;99.90;;;;;;4968066;28;20938;-69
2024/01/04 09:58:25;;;;;;;7.40;1.00;;;9.50;99.90;;;;;;4980631;28;20779;-69
2024/01/04 10:00:53;;;;;;;8.57;1.10;;;9.60;99.90;;;;;;4985213;28;20443;-68
2024/01/04 10:03:22;;;;;;;7.60;0.97;;;9.50;99.90;;;;;;4975920;28;20455;-68
2024/01/04 10:05:51;;;;;;;7.37;2.00;;;9.70;99.90;;;;;;4972434;28;20528;-68
2024/01/04 10:08:28;;;;;;;8.90;1.00;;;9.90;99.90;;;;;;4974577;28;20441;-67
2024/01/04 10:11:00;;;;;;;13.93;1.73;;;9.80;99.90;;;;;;4974848;28;20436;-66
2024/01/04 10:13:30;;;;;;;6.30;0.80;;;9.70;99.90;;;;;;4977653;28;20498;-68
2024/01/04 10:15:59;;;;;;;7.60;0.77;;;9.50;99.90;;;;;;4985743;28;20569;-68
2024/01/04 10:18:29;;;;;;;10.43;1.13;;;9.30;99.90;;;;;;4981655;28;20465;-68
2024/01/04 10:21:02;;;;;;;8.50;0.70;;;9.30;99.90;;;;;;4981722;28;20534;-68
2024/01/04 10:23:32;;;;;;;9.13;0.77;;;9.30;99.90;;;;;;4966292;28;20456;-68
2024/01/04 10:26:10;;;;;;;13.20;1.20;;;9.20;99.90;;;;;;4970549;28;20459;-67
2024/01/04 10:28:39;;;;;;;7.47;0.70;;;9.10;99.90;;;;;;4979179;28;20446;-68
2024/01/04 10:31:09;;;;;;;8.87;1.10;;;9.10;99.90;;;;;;4978449;28;20446;-69
2024/01/04 10:33:37;;;;;;;6.10;0.60;;;9.20;99.90;;;;;;4970168;28;20489;-67
2024/01/04 10:36:10;;;;;;;6.23;0.50;;;9.10;99.90;;;;;;4969041;28;20460;-67
2024/01/04 10:38:39;;;;;;;7.10;0.50;;;8.90;99.90;;;;;;4968599;28;20463;-68
2024/01/04 10:41:07;;;;;;;7.10;1.10;;;8.90;99.90;;;;;;4969841;28;20533;-67
2024/01/04 10:43:35;;;;;;;7.50;0.60;;;8.90;99.90;;;;;;4965940;28;20499;-67
2024/01/04 10:46:05;;;;;;;6.77;0.70;;;8.80;99.90;;;;;;4965878;28;20546;-67
2024/01/04 10:48:33;;;;;;;5.83;0.50;;;8.70;99.90;;;;;;4988811;28;20467;-67
2024/01/04 10:51:05;;;;;;;7.00;0.70;;;8.60;99.90;;;;;;4967289;28;20457;-67
2024/01/04 10:53:36;;;;;;;7.40;0.60;;;8.50;99.90;;;;;;4973530;28;20475;-67
2024/01/04 10:56:08;;;;;;;8.43;0.87;;;8.60;99.90;;;;;;4976771;28;20499;-68
2024/01/04 10:58:37;;;;;;;6.60;0.87;;;8.70;99.90;;;;;;4969647;28;20453;-67
2024/01/04 11:01:05;;;;;;;7.00;0.80;;;8.80;99.90;;;;;;4969581;28;20969;-67
2024/01/04 11:03:33;;;;;;;7.30;0.80;;;8.80;99.90;;;;;;4969803;28;20551;-67
2024/01/04 11:06:02;;;;;;;7.23;0.70;;;9.00;99.90;;;;;;4965073;28;20480;-68
2024/01/04 11:08:33;;;;;;;6.20;0.60;;;9.00;99.90;;;;;;4988070;28;20434;-67
2024/01/04 11:11:03;;;;;;;7.70;0.87;;;9.10;99.90;;;;;;4970020;28;20511;-67
2024/01/04 11:13:32;;;;;;;6.20;0.80;;;9.30;99.90;;;;;;4962708;28;20490;-66
2024/01/04 11:16:10;;;;;;;7.60;0.80;;;9.40;99.90;;;;;;4968759;28;20461;-67
2024/01/04 11:18:50;;;;;;;6.70;1.53;;;9.40;99.90;;;;;;4982245;28;20529;-67
2024/01/04 11:21:34;;;;;;;5.90;0.50;;;9.60;99.90;;;;;;4969414;28;20542;-67
2024/01/04 11:24:05;;;;;;;5.67;0.40;;;9.80;99.90;;;;;;4968851;28;20533;-67
2024/01/04 11:26:42;;;;;;;7.13;0.60;;;10.00;99.90;;;;;;4969568;28;20547;-68
2024/01/04 11:29:13;;;;;;;6.83;0.60;;;9.80;99.90;;;;;;4968810;28;20531;-68
2024/01/04 11:31:42;;;;;;;8.73;0.57;;;9.50;99.90;;;;;;4968850;28;20474;-67
2024/01/04 11:34:11;;;;;;;6.40;0.63;;;9.40;99.90;;;;;;4967393;28;20488;-67
2024/01/04 11:36:40;;;;;;;6.40;0.53;;;9.20;99.90;;;;;;4969175;28;20455;-67
2024/01/04 11:39:08;;;;;;;6.30;0.67;;;9.00;99.90;;;;;;4967738;28;20456;-67
2024/01/04 11:41:37;;;;;;;5.83;0.50;;;8.70;99.90;;;;;;4968776;28;20481;-68
2024/01/04 11:44:17;;;;;;;5.80;0.40;;;8.50;99.90;;;;;;4968736;28;20538;-67
2024/01/04 11:46:46;;;;;;;9.00;0.63;;;8.40;99.90;;;;;;4967898;28;20491;-68
2024/01/04 11:49:15;;;;;;;6.50;0.60;;;8.40;99.90;;;;;;4985569;28;20474;-68
2024/01/04 11:51:46;;;;;;;6.57;0.50;;;8.40;99.90;;;;;;4971160;28;20483;-68
2024/01/04 11:54:17;;;;;;;6.83;0.87;;;8.40;99.90;;;;;;4968407;28;20522;-68
2024/01/04 11:56:46;;;;;;;6.30;0.63;;;8.50;99.90;;;;;;4968523;28;20440;-68
2024/01/04 11:59:15;;;;;;;7.20;0.87;;;8.60;99.90;;;;;;4968742;28;20452;-68
2024/01/04 12:01:45;;;;;;;11.23;1.20;;;8.60;99.90;;;;;;4968481;28;21119;-68
2024/01/04 12:04:14;;;;;;;6.27;0.70;;;8.80;99.90;;;;;;4965683;28;20442;-68
2024/01/04 12:06:43;;;;;;;7.60;0.60;;;8.80;99.90;;;;;;4968411;28;20451;-68
2024/01/04 12:09:15;;;;;;;7.53;0.60;;;8.80;99.90;;;;;;4966541;28;20458;-69
2024/01/04 12:11:53;;;;;;;7.23;0.73;;;8.90;99.90;;;;;;4967940;28;21060;-68
2024/01/04 12:14:22;;;;;;;7.17;0.60;;;9.10;99.90;;;;;;4961721;28;20515;-69
2024/01/04 12:16:52;;;;;;;6.20;0.70;;;9.30;99.90;;;;;;4977038;28;20544;-69
2024/01/04 12:19:20;;;;;;;6.93;0.80;;;9.30;99.90;;;;;;4975651;28;20547;-68
2024/01/04 12:21:48;;;;;;;7.07;0.67;;;9.40;99.90;;;;;;4960921;28;20551;-69
2024/01/04 12:24:17;;;;;;;6.10;0.70;;;9.40;99.90;;;;;;4967788;28;20452;-69
2024/01/04 12:26:45;;;;;;;6.80;0.90;;;9.60;99.90;;;;;;4967545;28;20449;-69
2024/01/04 12:29:14;;;;;;;6.53;0.80;;;9.70;99.90;;;;;;4967294;28;20960;-69
2024/01/04 12:31:43;;;;;;;7.30;0.90;;;9.90;99.90;;;;;;4967119;28;20478;-69
2024/01/04 12:34:13;;;;;;;9.60;0.90;;;10.20;99.90;;;;;;4967347;28;20485;-68
2024/01/04 12:36:42;;;;;;;7.57;1.10;;;10.20;99.90;;;;;;4965699;28;21006;-69
2024/01/04 12:39:11;;;;;;;6.60;1.00;;;10.30;99.90;;;;;;4967315;28;20560;-69
2024/01/04 12:41:44;;;;;;;10.33;1.30;;;10.30;99.90;;;;;;4966978;28;20476;-69
2024/01/04 12:44:12;;;;;;;7.90;1.90;;;10.40;99.90;;;;;;4967136;28;20450;-69
2024/01/04 12:46:41;;;;;;;8.70;1.10;;;10.80;99.90;;;;;;4964488;28;20513;-69
2024/01/04 12:49:11;;;;;;;6.93;1.00;;;11.10;99.90;;;;;;4973495;28;20880;-69
2024/01/04 12:51:43;;;;;;;6.70;1.47;;;11.00;99.90;;;;;;4975666;28;20476;-69
2024/01/04 12:54:12;;;;;;;6.40;0.60;;;10.90;99.90;;;;;;4968451;28;21035;-69
2024/01/04 12:56:40;;;;;;;7.03;0.70;;;10.70;99.90;;;;;;4972769;28;20533;-68
2024/01/04 12:59:10;;;;;;;7.47;1.23;;;10.30;99.90;;;;;;4974318;28;20461;-68
2024/01/04 13:01:38;;;;;;;9.03;1.23;;;10.10;99.90;;;;;;4973410;28;20481;-69
2024/01/04 13:04:07;;;;;;;13.33;1.87;;;10.10;99.90;;;;;;4974587;28;20512;-68